CheckWX is a tool to help pilots better visualize weather data.  It is not intended as a substitute for an official pre-flight weather briefing.

17:51:34 UTC

EGPH METAR
Edinburgh Airport
Edinburgh, United Kingdom
Current

32 mins ago

EGPH 111720Z 23015KT 9999 FEW018 04/02 Q0993
Observed
Dec-11 @ 17:20 UTC
Wind
  • 230° at 15 KTS
Visibility
10,000+ meters
Flight Rules
VFR
Cloud Levels
  • Few at 1,800' AGL
Temperature
C / 39°F
Dewpoint
C / 36°F
Humidity
87%
Altimeter
29.32" Hg
Pressure
992.92 hPa
Previous

1 hour ago

EGPH 111650Z 23015KT 9999 -RA FEW018 04/02 Q0992
Observed
Dec-11 @ 16:50 UTC
Wind
  • 230° at 15 KTS
Visibility
10,000+ meters
Flight Rules
VFR
Conditions
Light Rain
Cloud Levels
  • Few at 1,800' AGL
Temperature
C / 39°F
Dewpoint
C / 36°F
Humidity
87%
Altimeter
29.29" Hg
Pressure
991.92 hPa
Previous

2 hours ago

EGPH 111620Z 23012KT 9999 FEW016TCU 03/02 Q0992
Observed
Dec-11 @ 16:20 UTC
Wind
  • 230° at 12 KTS
Visibility
10,000+ meters
Flight Rules
VFR
Cloud Levels
  • Few at 1,600' AGL
Temperature
C / 37°F
Dewpoint
C / 36°F
Humidity
93%
Altimeter
29.29" Hg
Pressure
991.92 hPa